• Join FlightAware (Why Join?)
  • Login
  • US Flag 
09:53AM EST


 

Airport Tracker/Info


-or-


 

Live Flight TrackerFlight Track Log ✈ CTL13 ✈ 08-May-2013 ✈ KEYE - KMDW

Flight Track Log - Related Links

Times and Time Zones

All times are in EDT time to prevent confusion due to time zone crossing. See the CTL13 flight status page for this flight to view local times or setup timezone preferences in your user account.

Time Position Orientation Groundspeed Altitude Reporting Facility
EDT Latitude Longitude Course Direction KTS MPH feet Rate Location/Type
08:27PM 39.8833 -86.2833 360° North 134 154 2,000  Level Indianapolis TRACON
08:28PM 39.9189 -86.2964 344° North 182 209 2,500 540 Climbing Chicago Center
08:29PM 39.9475 -86.3297 318° Northwest 139 160 3,000 480 Climbing Chicago Center
08:30PM 39.9758 -86.3636 317° Northwest 139 160 3,500 480 Climbing Chicago Center
08:31PM 40.0044 -86.3981 317° Northwest 139 160 4,000 420 Climbing Chicago Center
08:32PM 40.0400 -86.4411 317° Northwest 142 163 4,400 360 Climbing Chicago Center
08:33PM 40.0703 -86.4764 318° Northwest 146 168 4,800 360 Climbing Indianapolis Center
08:34PM 40.1006 -86.5117 318° Northwest 147 169 5,200 360 Climbing Indianapolis Center
08:35PM 40.1333 -86.5478 320° Northwest 149 171 5,600 360 Climbing Chicago Center
08:36PM 40.1639 -86.5831 319° Northwest 149 171 6,000 180 Climbing Chicago Center
08:37PM 40.1972 -86.6222 318° Northwest 156 180 6,000  Level Chicago Center
08:37PM 40.2153 -86.6400 323° Northwest 160 184 6,000  Level Chicago Center
08:38PM 40.2433 -86.6556 337° Northwest 159 183 6,000  Level Chicago Center
08:38PM 40.2519 -86.6667 315° West 156 180 6,000  Level Chicago Center
08:39PM 40.2819 -86.6822 338° Northwest 158 182 6,000  Level Chicago Center
08:39PM 40.2928 -86.6939 321° Northwest 155 178 6,000  Level Chicago Center
08:40PM 40.3178 -86.7100 334° Northwest 152 175 6,000  Level Chicago Center
08:40PM 40.3272 -86.7206 320° Northwest 154 177 6,000  Level Chicago Center
08:41PM 40.3547 -86.7381 334° Northwest 154 177 6,000  Level Chicago Center
08:41PM 40.3658 -86.7475 327° Northwest 151 174 6,000 -120 Level Chicago Center
08:42PM 40.3908 -86.7661 330° Northwest 153 176 5,900  Descending Chicago Center
08:42PM 40.4044 -86.7772 328° Northwest 152 175 6,000 60 Climbing Chicago Center
08:43PM 40.4275 -86.7919 334° Northwest 151 174 6,000  Level Chicago Center
08:44PM 40.4706 -86.8261 329° Northwest 152 175 6,000  Level Chicago Center
08:45PM 40.5089 -86.8536 331° Northwest 158 182 6,000  Level Chicago Center
08:46PM 40.5444 -86.8814 329° Northwest 150 173 6,000  Level Chicago Center
08:47PM 40.5822 -86.9100 330° Northwest 157 181 6,000  Level Chicago Center
08:48PM 40.6203 -86.9375 331° Northwest 157 181 6,000  Level Chicago Center
08:49PM 40.6586 -86.9636 333° Northwest 157 181 6,000  Level Chicago Center
08:50PM 40.7031 -86.9978 330° Northwest 158 182 6,000  Level Chicago Center
08:51PM 40.7436 -87.0228 335° Northwest 158 182 6,000  Level Chicago Center
08:53PM 40.7806 -87.0508 330° Northwest 155 178 6,000  Level Chicago Center
08:54PM 40.8175 -87.0794 330° Northwest 156 180 6,000  Level Chicago Center
08:55PM 40.8547 -87.1047 333° Northwest 153 176 6,000  Level Chicago Center
08:56PM 40.8917 -87.1333 330° Northwest 156 180 6,000  Level Chicago Center
08:57PM 40.9372 -87.1622 334° Northwest 152 175 6,000  Level Chicago Center
08:58PM 40.9731 -87.1875 332° Northwest 147 169 6,000  Level Chicago Center
08:59PM 41.0094 -87.2136 332° Northwest 150 173 6,000  Level Chicago Center
09:00PM 41.0469 -87.2406 332° Northwest 153 176 6,000  Level Chicago Center
09:01PM 41.0839 -87.2683 330° Northwest 153 176 6,000 -120 Level Chicago Center
09:02PM 41.1269 -87.3003 331° Northwest 151 174 5,800 -780 Descending Chicago Center
09:03PM 41.1692 -87.3339 329° Northwest 167 192 4,500 -900 Descending Chicago Center
09:04PM 41.2183 -87.3656 334° Northwest 184 212 4,000 -300 Descending Chicago Center
09:05PM 41.2600 -87.3947 332° Northwest 182 209 4,000  Level Chicago Center
09:06PM 41.2994 -87.4239 331° Northwest 173 199 4,000  Level Chicago Center
09:07PM 41.3478 -87.4600 331° Northwest 168 193 4,000  Level Chicago Center
09:08PM 41.3881 -87.4878 333° Northwest 167 192 4,000 -60 Level Chicago Center
09:09PM 41.4281 -87.5147 333° Northwest 165 190 3,900  Descending Chicago Center
09:10PM 41.4686 -87.5417 334° Northwest 165 190 4,000  Climbing Chicago Center
09:11PM 41.5083 -87.5703 332° Northwest 164 189 3,900 -60 Descending Chicago Center
09:12PM 41.5572 -87.6022 334° Northwest 164 189 3,900  Level Chicago Center
09:13PM 41.5836 -87.6511 306° West 162 186 4,000 -360 Climbing Chicago Center
09:14PM 41.5942 -87.7106 283° West 176 203 3,200 -540 Descending Chicago Center
09:15PM 41.5914 -87.7803 267° West 188 216 2,900 -180 Descending Chicago Center
09:16PM 41.5886 -87.8436 267° West 181 208 2,900  Level Chicago Center
09:17PM 41.6064 -87.9106 290° West 182 209 2,900 -240 Level Chicago Center
09:18PM 41.6494 -87.9119 359° North 179 206 2,500 -300 Descending Chicago Center
09:19PM 41.6878 -87.8761 35° Northeast 174 200 2,300 -120 Descending Chicago Center
09:20PM 41.7000 -87.8500 58° Northeast 158 182 2,400 -300 Climbing Chicago TRACON
09:21PM 41.7333 -87.8167 37° Northeast 137 158 1,900 -600 Descending Chicago TRACON
09:22PM 41.7667 -87.7833 37° Northeast 130 150 1,200 -720 Descending Chicago TRACON
09:24PM 41.7833 -87.7500 334° Northwest  Level FlightAware Approximate